Time;durP1;ratioP1;P1;durP2;ratioP2;P2;SDS_P1;SDS_P2;PMS_P1;PMS_P2;Temp;Humidity;BMP_temperature;BMP_pressure;BME280_temperature;BME280_humidity;BME280_pressure;Samples;Min_cycle;Max_cycle;Signal;HPM_P1;HPM_P2
2022/06/30 00:00:14;;;;;;;0.75;0.40;;;21.10;99.90;;;;;;5069974;28;20151;-70
2022/06/30 00:02:40;;;;;;;2.17;0.38;;;21.10;99.90;;;;;;5068840;28;20392;-70
2022/06/30 00:05:07;;;;;;;26.67;0.98;;;21.00;99.90;;;;;;5070659;28;20112;-70
2022/06/30 00:07:33;;;;;;;0.30;0.30;;;21.10;99.90;;;;;;5069927;28;20040;-70
2022/06/30 00:09:59;;;;;;;0.80;0.30;;;21.10;99.90;;;;;;5070650;28;20093;-70
2022/06/30 00:12:25;;;;;;;0.35;0.20;;;21.10;99.90;;;;;;5068880;28;20131;-70
2022/06/30 00:14:50;;;;;;;0.10;0.10;;;21.00;99.90;;;;;;5052058;28;20045;-70
2022/06/30 00:17:16;;;;;;;0.00;0.00;;;21.00;99.90;;;;;;5070415;28;20487;-70
2022/06/30 00:19:42;;;;;;;0.40;0.40;;;21.00;99.90;;;;;;5050540;28;20133;-70
2022/06/30 00:22:07;;;;;;;0.10;0.10;;;21.00;99.90;;;;;;5048375;28;20148;-70
2022/06/30 00:24:34;;;;;;;0.25;0.25;;;21.00;99.90;;;;;;5050465;28;20113;-70
2022/06/30 00:27:00;;;;;;;0.30;0.30;;;21.00;99.90;;;;;;5063147;28;20429;-70
2022/06/30 00:29:25;;;;;;;0.17;0.17;;;21.00;99.90;;;;;;5069635;28;20044;-70
2022/06/30 00:31:51;;;;;;;0.00;0.00;;;21.00;99.90;;;;;;5068654;28;20045;-70
2022/06/30 00:34:17;;;;;;;0.10;0.10;;;21.00;99.90;;;;;;5069479;28;20048;-70
2022/06/30 00:36:43;;;;;;;1.30;0.88;;;21.00;99.90;;;;;;5069972;28;20048;-70
2022/06/30 00:39:10;;;;;;;0.10;0.10;;;21.00;99.90;;;;;;5050273;28;20049;-70
2022/06/30 00:41:39;;;;;;;0.10;0.10;;;21.00;99.90;;;;;;5047964;28;20049;-70
2022/06/30 00:44:07;;;;;;;0.32;0.32;;;21.00;99.90;;;;;;5050033;28;20041;-70
2022/06/30 00:46:33;;;;;;;0.25;0.10;;;21.00;99.90;;;;;;5050134;28;20048;-70
2022/06/30 00:49:00;;;;;;;0.10;0.10;;;21.00;99.90;;;;;;5039549;28;20476;-70
2022/06/30 00:51:25;;;;;;;0.50;0.50;;;21.00;99.90;;;;;;5066117;28;20040;-70
2022/06/30 00:53:54;;;;;;;0.10;0.10;;;21.00;99.90;;;;;;5070573;28;20044;-70
2022/06/30 00:56:22;;;;;;;0.10;0.10;;;21.00;99.90;;;;;;5079451;28;20109;-70
2022/06/30 00:58:50;;;;;;;0.38;0.38;;;20.90;99.90;;;;;;5069019;28;20062;-70
2022/06/30 01:01:17;;;;;;;0.90;0.43;;;21.00;99.90;;;;;;5065125;28;20490;-70
2022/06/30 01:03:44;;;;;;;0.47;0.47;;;20.90;99.90;;;;;;5031236;28;20041;-70
2022/06/30 01:06:10;;;;;;;1.13;0.40;;;20.90;99.90;;;;;;5066583;28;20443;-70
2022/06/30 01:08:36;;;;;;;1.40;0.28;;;20.90;99.90;;;;;;5071464;28;20051;-70
2022/06/30 01:13:48;;;;;;;0.35;0.35;;;20.90;99.90;;;;;;5050451;28;20056;-70
2022/06/30 01:16:13;;;;;;;0.00;0.00;;;20.90;99.90;;;;;;5051887;28;20045;-70
2022/06/30 01:18:39;;;;;;;0.28;0.28;;;20.80;99.90;;;;;;5069388;28;20498;-70
2022/06/30 01:21:05;;;;;;;0.03;0.03;;;20.80;99.90;;;;;;5067262;28;20037;-70
2022/06/30 01:23:31;;;;;;;0.10;0.10;;;20.80;99.90;;;;;;5068952;28;20373;-70
2022/06/30 01:25:56;;;;;;;0.57;0.32;;;20.80;99.90;;;;;;5069827;28;20041;-70
2022/06/30 01:28:22;;;;;;;0.28;0.28;;;20.80;99.90;;;;;;5062642;28;20044;-70
2022/06/30 01:30:48;;;;;;;0.95;0.93;;;20.70;99.90;;;;;;5066110;28;20040;-70
2022/06/30 01:33:13;;;;;;;0.10;0.10;;;20.70;99.90;;;;;;5062835;28;20078;-70
2022/06/30 01:35:39;;;;;;;0.00;0.00;;;20.70;99.90;;;;;;5085936;28;20135;-70
2022/06/30 01:38:05;;;;;;;0.10;0.10;;;20.60;99.90;;;;;;5069710;28;20391;-70
2022/06/30 01:40:35;;;;;;;0.10;0.10;;;20.50;99.90;;;;;;5069785;28;20423;-70
2022/06/30 01:43:06;;;;;;;0.03;0.03;;;20.60;99.90;;;;;;5046242;28;20136;-70
2022/06/30 01:45:32;;;;;;;0.30;0.30;;;20.60;99.90;;;;;;5065042;28;20384;-70
2022/06/30 01:47:58;;;;;;;0.68;0.57;;;20.60;99.90;;;;;;5048044;28;20076;-70
2022/06/30 01:50:28;;;;;;;0.20;0.20;;;20.60;99.90;;;;;;5072687;28;20476;-70
2022/06/30 01:52:53;;;;;;;1.25;0.80;;;20.60;99.90;;;;;;5054667;28;20400;-70
2022/06/30 01:55:20;;;;;;;0.47;0.30;;;20.50;99.90;;;;;;5071213;28;20056;-70
2022/06/30 01:57:45;;;;;;;0.00;0.00;;;20.50;99.90;;;;;;5051790;28;20087;-70
2022/06/30 02:00:14;;;;;;;0.10;0.10;;;20.50;99.90;;;;;;5052115;28;20052;-70
2022/06/30 02:02:40;;;;;;;0.00;0.00;;;20.50;99.90;;;;;;5035180;28;20107;-70
2022/06/30 02:05:07;;;;;;;0.10;0.10;;;20.50;99.90;;;;;;5071622;28;20127;-70
2022/06/30 02:07:36;;;;;;;0.50;0.47;;;20.50;99.90;;;;;;5054039;28;20040;-70
2022/06/30 02:10:05;;;;;;;1.23;0.60;;;20.60;99.90;;;;;;5073122;28;20052;-70
2022/06/30 02:12:45;;;;;;;0.45;0.30;;;20.50;99.90;;;;;;5052780;28;20084;-70
2022/06/30 02:15:12;;;;;;;0.10;0.10;;;20.50;99.90;;;;;;5062994;28;20040;-70
2022/06/30 02:17:38;;;;;;;0.30;0.30;;;20.50;99.90;;;;;;5080162;28;20036;-70
2022/06/30 02:20:07;;;;;;;0.35;0.35;;;20.50;99.90;;;;;;5073846;28;20052;-70
2022/06/30 02:22:36;;;;;;;0.05;0.05;;;20.40;99.90;;;;;;5072753;28;20142;-70
2022/06/30 02:25:02;;;;;;;0.32;0.32;;;20.40;99.90;;;;;;5092477;28;20565;-70
2022/06/30 02:27:28;;;;;;;0.00;0.00;;;20.40;99.90;;;;;;5074235;28;20048;-70
2022/06/30 02:29:53;;;;;;;0.13;0.13;;;20.40;99.90;;;;;;5084649;28;20085;-70
2022/06/30 02:32:20;;;;;;;2.08;0.32;;;20.40;99.90;;;;;;5072178;28;20048;-70
2022/06/30 02:34:47;;;;;;;0.30;0.30;;;20.30;99.90;;;;;;5054252;28;20048;-70
2022/06/30 02:37:12;;;;;;;0.22;0.20;;;20.20;99.90;;;;;;5070081;28;20521;-70
2022/06/30 02:39:38;;;;;;;0.20;0.20;;;20.30;99.90;;;;;;5071912;28;20037;-70
2022/06/30 02:42:04;;;;;;;0.40;0.25;;;20.30;99.90;;;;;;5071580;28;20516;-70
2022/06/30 02:44:29;;;;;;;0.00;0.00;;;20.20;99.90;;;;;;5074300;28;20495;-70
2022/06/30 02:46:55;;;;;;;1.00;0.32;;;20.20;99.90;;;;;;5092737;28;20051;-70
2022/06/30 02:49:21;;;;;;;0.00;0.00;;;20.10;99.90;;;;;;5065786;28;20039;-70
2022/06/30 02:51:48;;;;;;;0.00;0.00;;;20.10;99.90;;;;;;5044199;28;20048;-70
2022/06/30 02:54:14;;;;;;;0.38;0.35;;;20.00;99.90;;;;;;5053106;28;20040;-70
2022/06/30 02:56:40;;;;;;;0.20;0.15;;;20.10;99.90;;;;;;5070610;28;20522;-70
2022/06/30 02:59:06;;;;;;;0.10;0.10;;;20.00;99.90;;;;;;5071758;28;20098;-70
2022/06/30 03:01:31;;;;;;;0.73;0.73;;;20.00;99.90;;;;;;5067772;28;20526;-70
2022/06/30 03:03:59;;;;;;;0.22;0.15;;;20.00;99.90;;;;;;5071452;28;20087;-70
2022/06/30 03:06:26;;;;;;;0.00;0.00;;;20.00;99.90;;;;;;5069883;28;20048;-70
2022/06/30 03:08:52;;;;;;;0.15;0.15;;;20.00;99.90;;;;;;5049946;28;20385;-70
2022/06/30 03:11:18;;;;;;;0.03;0.03;;;19.90;99.90;;;;;;5071248;28;20052;-70
2022/06/30 03:13:47;;;;;;;0.30;0.30;;;19.90;99.90;;;;;;5073735;28;20044;-70
2022/06/30 03:16:12;;;;;;;0.20;0.15;;;19.90;99.90;;;;;;5033065;28;20151;-70
2022/06/30 03:18:39;;;;;;;0.10;0.10;;;19.90;99.90;;;;;;5062917;28;20648;-70
2022/06/30 03:21:05;;;;;;;0.47;0.47;;;19.80;99.90;;;;;;5069785;28;20063;-70
2022/06/30 03:23:31;;;;;;;0.93;0.70;;;19.80;99.90;;;;;;5070301;28;20484;-70
2022/06/30 03:25:56;;;;;;;0.22;0.10;;;19.80;99.90;;;;;;5053931;28;20131;-70
2022/06/30 03:28:22;;;;;;;0.10;0.10;;;19.80;99.90;;;;;;5071660;28;20055;-70
2022/06/30 03:30:48;;;;;;;1.25;0.85;;;19.80;99.90;;;;;;5069027;28;20044;-70
2022/06/30 03:33:17;;;;;;;0.30;0.30;;;19.80;99.90;;;;;;5070970;28;20093;-70
2022/06/30 03:35:44;;;;;;;0.10;0.10;;;19.80;99.90;;;;;;5047846;28;20117;-70
2022/06/30 03:38:10;;;;;;;0.75;0.30;;;19.70;99.90;;;;;;5070279;28;20044;-70
2022/06/30 03:40:35;;;;;;;0.10;0.10;;;19.80;99.90;;;;;;5053291;28;20044;-70
2022/06/30 03:43:01;;;;;;;5.32;0.47;;;19.70;99.90;;;;;;5061024;28;20113;-70
2022/06/30 03:45:27;;;;;;;0.75;0.43;;;19.70;99.90;;;;;;5090654;28;20124;-70
2022/06/30 03:47:53;;;;;;;0.30;0.30;;;19.70;99.90;;;;;;5072722;28;20055;-70
2022/06/30 03:50:19;;;;;;;0.00;0.00;;;19.70;99.90;;;;;;5070805;28;20396;-70
2022/06/30 03:52:45;;;;;;;0.65;0.45;;;19.70;99.90;;;;;;5068605;28;20052;-70
2022/06/30 03:55:11;;;;;;;0.15;0.15;;;19.70;99.90;;;;;;5070723;28;20072;-70
2022/06/30 03:57:37;;;;;;;0.00;0.00;;;19.70;99.90;;;;;;5070395;28;20040;-70
2022/06/30 04:00:04;;;;;;;0.30;0.30;;;19.70;99.90;;;;;;5048267;28;20045;-70
2022/06/30 04:02:29;;;;;;;0.50;0.30;;;19.60;99.90;;;;;;5058658;28;20047;-70
2022/06/30 04:04:55;;;;;;;0.98;0.43;;;19.70;99.90;;;;;;5070909;28;20049;-70
2022/06/30 04:07:20;;;;;;;0.10;0.10;;;19.70;99.90;;;;;;5051376;28;20047;-70
2022/06/30 04:09:46;;;;;;;0.00;0.00;;;19.80;99.90;;;;;;5073652;28;20059;-70
2022/06/30 04:12:12;;;;;;;0.10;0.10;;;19.70;99.90;;;;;;5069227;28;20056;-70
2022/06/30 04:14:37;;;;;;;1.00;0.38;;;19.80;99.90;;;;;;5062071;28;20056;-70
2022/06/30 04:17:03;;;;;;;0.10;0.10;;;19.80;99.90;;;;;;5070062;28;20107;-70
2022/06/30 04:19:30;;;;;;;0.00;0.00;;;19.80;99.90;;;;;;5051613;28;20068;-70
2022/06/30 04:21:56;;;;;;;0.30;0.28;;;19.90;99.90;;;;;;5046997;28;20075;-70
2022/06/30 04:24:21;;;;;;;0.10;0.10;;;19.80;99.90;;;;;;5048540;28;20037;-70
2022/06/30 04:26:47;;;;;;;0.03;0.03;;;19.70;99.90;;;;;;5055142;28;20090;-70
2022/06/30 04:29:13;;;;;;;0.08;0.08;;;19.80;99.90;;;;;;5052996;28;20095;-70
2022/06/30 04:34:22;;;;;;;0.43;0.35;;;19.80;99.90;;;;;;5068554;28;20492;-70
2022/06/30 04:36:48;;;;;;;0.20;0.20;;;19.70;99.90;;;;;;5053046;28;20052;-70
2022/06/30 04:39:13;;;;;;;0.00;0.00;;;19.80;99.90;;;;;;5070178;28;20510;-70
2022/06/30 04:41:39;;;;;;;0.10;0.10;;;19.80;99.90;;;;;;5067729;28;20049;-70
2022/06/30 04:44:05;;;;;;;0.43;0.43;;;19.80;99.90;;;;;;5048610;28;20051;-70
2022/06/30 04:46:31;;;;;;;0.25;0.25;;;19.90;99.90;;;;;;5050674;28;20440;-70
2022/06/30 04:48:57;;;;;;;0.47;0.20;;;19.90;99.90;;;;;;5036297;28;20099;-70
2022/06/30 04:51:23;;;;;;;0.20;0.20;;;19.90;99.90;;;;;;5070342;28;20048;-70
2022/06/30 04:53:49;;;;;;;0.05;0.05;;;19.90;99.90;;;;;;5070873;28;20091;-70
2022/06/30 04:56:15;;;;;;;0.08;0.08;;;19.80;99.90;;;;;;5048435;28;20513;-70
2022/06/30 04:58:41;;;;;;;0.20;0.10;;;19.80;99.90;;;;;;5070343;28;20060;-70
2022/06/30 05:01:07;;;;;;;0.47;0.47;;;19.90;99.90;;;;;;5068104;28;20044;-70
2022/06/30 05:03:33;;;;;;;0.10;0.10;;;19.90;99.90;;;;;;5069576;28;20037;-70
2022/06/30 05:05:59;;;;;;;0.10;0.10;;;19.80;99.90;;;;;;5070379;28;20123;-70
2022/06/30 05:08:25;;;;;;;0.35;0.35;;;19.80;99.90;;;;;;5079408;28;20139;-70
2022/06/30 05:10:51;;;;;;;0.10;0.10;;;19.80;99.90;;;;;;5069760;28;20522;-70
2022/06/30 05:13:17;;;;;;;0.30;0.30;;;19.80;99.90;;;;;;5070350;28;20120;-71
2022/06/30 05:15:45;;;;;;;0.65;0.52;;;19.90;99.90;;;;;;5046605;28;20076;-70
2022/06/30 05:18:10;;;;;;;0.00;0.00;;;19.90;99.90;;;;;;5069568;28;20040;-70
2022/06/30 05:20:36;;;;;;;0.32;0.30;;;20.00;99.90;;;;;;5069867;28;20090;-70
2022/06/30 05:23:02;;;;;;;0.00;0.00;;;20.00;99.90;;;;;;5068289;28;20051;-70
2022/06/30 05:28:12;;;;;;;0.10;0.10;;;20.10;99.90;;;;;;5055801;28;20052;-70
2022/06/30 05:30:39;;;;;;;0.65;0.65;;;20.20;99.90;;;;;;5071135;28;20049;-70
2022/06/30 05:33:04;;;;;;;0.17;0.17;;;20.20;99.90;;;;;;5073709;28;20466;-71
2022/06/30 05:35:30;;;;;;;0.20;0.15;;;20.30;99.90;;;;;;5070900;28;20056;-70
2022/06/30 05:37:56;;;;;;;0.10;0.10;;;20.30;99.90;;;;;;5065567;28;20067;-70
2022/06/30 05:40:22;;;;;;;0.68;0.52;;;20.20;99.90;;;;;;5055522;28;20067;-70
2022/06/30 05:42:47;;;;;;;0.08;0.08;;;20.30;99.90;;;;;;5083997;28;20123;-70
2022/06/30 05:45:13;;;;;;;0.08;0.08;;;20.30;99.90;;;;;;5092700;28;20039;-70
2022/06/30 05:47:52;;;;;;;0.10;0.10;;;20.40;99.90;;;;;;5077063;28;20044;-70
2022/06/30 05:50:19;;;;;;;0.00;0.00;;;20.40;99.90;;;;;;5073501;28;20159;-70
2022/06/30 05:52:45;;;;;;;0.10;0.10;;;20.40;99.90;;;;;;5073195;28;20404;-70
2022/06/30 05:55:11;;;;;;;0.00;0.00;;;20.40;99.90;;;;;;5071172;28;20408;-70
2022/06/30 05:57:58;;;;;;;0.00;0.00;;;20.50;99.90;;;;;;5072769;28;20105;-70
2022/06/30 06:00:26;;;;;;;0.03;0.03;;;20.50;99.90;;;;;;5071536;28;20173;-70
2022/06/30 06:02:52;;;;;;;0.22;0.22;;;20.50;99.90;;;;;;5075068;28;20044;-70
2022/06/30 06:05:17;;;;;;;0.05;0.05;;;20.60;99.90;;;;;;5092673;28;20423;-70
2022/06/30 06:07:43;;;;;;;0.10;0.10;;;20.60;99.90;;;;;;5094034;28;20443;-70
2022/06/30 06:10:10;;;;;;;0.10;0.10;;;20.60;99.90;;;;;;5061369;28;20098;-70
2022/06/30 06:12:36;;;;;;;0.80;0.75;;;20.70;99.90;;;;;;5085700;28;20071;-70
2022/06/30 06:15:02;;;;;;;0.10;0.10;;;20.80;99.90;;;;;;5082442;28;20116;-70
2022/06/30 06:17:29;;;;;;;0.10;0.10;;;20.90;99.90;;;;;;5072976;28;20127;-70
2022/06/30 06:19:54;;;;;;;0.00;0.00;;;20.80;99.90;;;;;;5069748;28;20110;-70
2022/06/30 06:22:20;;;;;;;0.00;0.00;;;20.90;99.90;;;;;;5072208;28;20131;-70
2022/06/30 06:24:46;;;;;;;0.03;0.03;;;20.90;99.90;;;;;;5072982;28;20044;-70
2022/06/30 06:27:11;;;;;;;0.28;0.28;;;21.00;99.90;;;;;;5070017;28;20102;-70
2022/06/30 06:29:37;;;;;;;0.30;0.30;;;21.00;99.90;;;;;;5072601;28;20042;-70
2022/06/30 06:32:02;;;;;;;0.75;0.75;;;21.00;99.90;;;;;;5070789;28;20052;-70
2022/06/30 06:34:28;;;;;;;0.38;0.25;;;21.10;99.90;;;;;;5071375;28;20404;-69
2022/06/30 06:36:54;;;;;;;0.22;0.22;;;21.10;99.90;;;;;;5072783;28;20052;-70
2022/06/30 06:39:19;;;;;;;0.30;0.30;;;21.20;99.90;;;;;;5070084;28;20037;-70
2022/06/30 06:41:45;;;;;;;0.75;0.45;;;21.20;99.90;;;;;;5071810;28;20037;-70
2022/06/30 06:44:11;;;;;;;0.15;0.15;;;21.30;99.90;;;;;;5072256;28;20040;-70
2022/06/30 06:46:37;;;;;;;0.43;0.43;;;21.30;99.90;;;;;;5063025;28;20135;-70
2022/06/30 06:49:06;;;;;;;0.10;0.10;;;21.30;99.90;;;;;;5091390;28;20123;-70
2022/06/30 06:51:32;;;;;;;0.08;0.08;;;21.40;99.90;;;;;;5092286;28;20495;-70
2022/06/30 06:53:58;;;;;;;0.00;0.00;;;21.40;99.90;;;;;;5086987;28;20086;-70
2022/06/30 06:56:24;;;;;;;0.00;0.00;;;21.50;99.90;;;;;;5050259;28;20601;-70
2022/06/30 06:58:50;;;;;;;0.10;0.10;;;21.50;99.90;;;;;;5052255;28;20132;-70
2022/06/30 07:01:15;;;;;;;0.10;0.10;;;21.60;99.90;;;;;;5070202;28;20044;-70
2022/06/30 07:03:41;;;;;;;0.17;0.17;;;21.60;99.90;;;;;;5092094;28;20043;-70
2022/06/30 07:06:07;;;;;;;0.08;0.08;;;21.70;99.90;;;;;;5073944;28;20139;-70
2022/06/30 07:08:33;;;;;;;0.10;0.10;;;21.70;99.90;;;;;;5071408;28;20052;-71
2022/06/30 07:10:59;;;;;;;0.10;0.10;;;21.80;99.90;;;;;;5055786;28;20062;-69
2022/06/30 07:13:26;;;;;;;0.00;0.00;;;21.90;99.90;;;;;;5053905;28;20048;-70
2022/06/30 07:15:52;;;;;;;0.17;0.17;;;21.90;99.90;;;;;;5069718;28;20128;-69
2022/06/30 07:18:18;;;;;;;0.00;0.00;;;22.00;99.90;;;;;;5071556;28;20044;-70
2022/06/30 07:20:44;;;;;;;0.15;0.13;;;22.10;99.90;;;;;;5071571;28;20044;-70
2022/06/30 07:23:09;;;;;;;0.60;0.50;;;22.20;99.90;;;;;;5068984;28;20119;-70
2022/06/30 07:25:35;;;;;;;0.25;0.25;;;22.30;99.90;;;;;;5071157;28;20102;-70
2022/06/30 07:28:02;;;;;;;0.10;0.10;;;22.30;99.90;;;;;;5078294;28;20111;-70
2022/06/30 07:30:28;;;;;;;0.43;0.20;;;22.40;99.90;;;;;;5090736;28;20044;-70
2022/06/30 07:32:53;;;;;;;0.08;0.08;;;22.40;99.90;;;;;;5080901;28;20047;-70
2022/06/30 07:35:19;;;;;;;0.10;0.10;;;22.50;99.90;;;;;;5071062;28;20045;-70
2022/06/30 07:37:45;;;;;;;0.17;0.17;;;22.60;99.90;;;;;;5071038;28;20063;-70
2022/06/30 07:40:12;;;;;;;0.00;0.00;;;22.60;99.90;;;;;;5069159;28;20127;-70
2022/06/30 07:42:38;;;;;;;5.68;0.98;;;22.80;99.90;;;;;;5070916;28;20851;-71
2022/06/30 07:45:05;;;;;;;0.13;0.13;;;22.80;99.90;;;;;;5070124;28;20131;-70
2022/06/30 07:47:30;;;;;;;0.10;0.10;;;22.80;99.90;;;;;;5047121;28;20409;-70
2022/06/30 07:49:56;;;;;;;0.00;0.00;;;22.90;99.90;;;;;;5063521;28;20057;-71
2022/06/30 07:52:21;;;;;;;1.38;0.25;;;22.90;99.90;;;;;;5068588;28;20553;-70
2022/06/30 07:54:47;;;;;;;0.10;0.10;;;23.00;99.90;;;;;;5070623;28;20138;-70
2022/06/30 07:57:13;;;;;;;0.20;0.20;;;23.00;99.90;;;;;;5069773;28;20044;-70
2022/06/30 07:59:39;;;;;;;0.10;0.10;;;23.00;99.90;;;;;;5050575;28;20063;-71
2022/06/30 08:02:06;;;;;;;0.40;0.22;;;23.10;99.90;;;;;;5068170;28;20048;-70
2022/06/30 08:04:33;;;;;;;0.22;0.22;;;23.10;99.90;;;;;;5070091;28;20044;-70
2022/06/30 08:07:01;;;;;;;0.32;0.32;;;23.20;99.90;;;;;;5065732;28;20177;-71
2022/06/30 08:09:27;;;;;;;0.35;0.35;;;23.20;99.90;;;;;;5090958;28;20040;-71
2022/06/30 08:11:54;;;;;;;0.10;0.10;;;23.20;99.90;;;;;;5079092;28;20046;-71
2022/06/30 08:14:20;;;;;;;0.08;0.08;;;23.20;99.90;;;;;;5051175;28;20173;-71
2022/06/30 08:16:46;;;;;;;0.00;0.00;;;23.30;99.90;;;;;;5070764;28;20384;-71
2022/06/30 08:19:12;;;;;;;0.22;0.22;;;23.30;99.90;;;;;;5046779;28;20048;-71
2022/06/30 08:21:37;;;;;;;0.10;0.10;;;23.30;99.90;;;;;;5065290;28;20499;-71
2022/06/30 08:24:03;;;;;;;0.25;0.25;;;23.30;99.90;;;;;;5070620;28;20040;-71
2022/06/30 08:26:30;;;;;;;0.10;0.10;;;23.30;99.90;;;;;;5068143;28;20051;-70
2022/06/30 08:28:56;;;;;;;2.40;1.13;;;23.30;99.90;;;;;;5048693;28;20516;-71
2022/06/30 08:31:21;;;;;;;0.10;0.10;;;23.40;99.90;;;;;;5031859;28;20049;-71
2022/06/30 08:33:50;;;;;;;0.73;0.45;;;23.50;99.90;;;;;;5050064;28;20110;-71
2022/06/30 08:36:19;;;;;;;1.20;1.10;;;23.50;99.90;;;;;;5054205;28;20066;-71
2022/06/30 08:38:44;;;;;;;0.30;0.30;;;23.50;99.90;;;;;;5070515;28;20407;-71
2022/06/30 08:43:56;;;;;;;1.15;0.57;;;23.60;99.90;;;;;;5050447;28;20063;-71
2022/06/30 08:46:23;;;;;;;0.20;0.20;;;23.70;99.90;;;;;;5065293;28;20101;-71
2022/06/30 08:48:49;;;;;;;0.00;0.00;;;23.70;99.90;;;;;;5070164;28;20041;-70
2022/06/30 08:51:16;;;;;;;0.10;0.10;;;23.80;99.90;;;;;;5068147;28;20484;-70
2022/06/30 08:54:03;;;;;;;1.95;0.65;;;23.90;99.90;;;;;;5048155;28;20551;-71
2022/06/30 08:56:34;;;;;;;0.25;0.25;;;23.90;99.90;;;;;;5031960;28;20056;-70
2022/06/30 08:59:02;;;;;;;2.10;0.77;;;23.90;99.90;;;;;;5045631;28;20400;-70
2022/06/30 09:01:28;;;;;;;0.10;0.10;;;24.00;99.90;;;;;;5069140;28;20055;-71
2022/06/30 09:03:55;;;;;;;2.17;0.85;;;24.00;99.90;;;;;;5075107;28;20287;-71
2022/06/30 09:06:21;;;;;;;0.10;0.10;;;24.00;99.90;;;;;;5071312;28;20040;-71
2022/06/30 09:08:47;;;;;;;0.10;0.10;;;24.10;99.90;;;;;;5071461;28;20104;-71
2022/06/30 09:11:13;;;;;;;0.40;0.40;;;24.10;99.90;;;;;;5063220;28;20044;-70
2022/06/30 09:13:45;;;;;;;1.85;1.08;;;24.10;99.90;;;;;;5048197;28;20408;-71
2022/06/30 09:16:12;;;;;;;1.03;0.30;;;24.20;99.90;;;;;;5061777;28;20040;-70
2022/06/30 09:18:38;;;;;;;2.10;0.45;;;24.20;99.90;;;;;;5089939;28;20062;-71
2022/06/30 09:21:18;;;;;;;0.10;0.10;;;24.30;99.90;;;;;;5071744;28;20044;-71
2022/06/30 09:23:45;;;;;;;0.40;0.40;;;24.40;99.90;;;;;;5089661;28;20043;-71
2022/06/30 09:26:19;;;;;;;1.98;1.40;;;24.40;99.90;;;;;;5051791;28;20137;-71
2022/06/30 09:28:47;;;;;;;0.65;0.65;;;24.50;99.90;;;;;;5065998;28;20086;-71
2022/06/30 09:31:29;;;;;;;0.85;0.32;;;24.40;99.90;;;;;;5069464;28;20056;-71
2022/06/30 09:33:54;;;;;;;0.50;0.50;;;24.50;99.90;;;;;;5050742;28;20089;-71
2022/06/30 09:36:28;;;;;;;0.63;0.63;;;24.50;99.90;;;;;;5068631;28;20182;-70
2022/06/30 09:39:04;;;;;;;0.20;0.20;;;24.50;99.90;;;;;;5051886;28;20388;-71
2022/06/30 09:41:32;;;;;;;1.23;1.13;;;24.60;99.90;;;;;;5051749;28;20060;-71
2022/06/30 09:43:58;;;;;;;3.60;1.92;;;24.60;99.90;;;;;;5068802;28;20037;-71
2022/06/30 09:46:24;;;;;;;0.35;0.35;;;24.60;99.90;;;;;;5071217;28;20549;-71
2022/06/30 09:48:50;;;;;;;1.55;0.95;;;24.80;99.90;;;;;;5090145;28;20617;-71
2022/06/30 09:51:17;;;;;;;0.47;0.47;;;25.20;99.90;;;;;;5088998;28;20044;-71
2022/06/30 09:53:42;;;;;;;3.95;0.70;;;25.40;99.90;;;;;;5057375;28;20124;-71
2022/06/30 09:56:13;;;;;;;1.67;1.40;;;25.70;99.90;;;;;;5047653;28;20199;-71
2022/06/30 09:58:42;;;;;;;1.55;0.40;;;26.00;99.90;;;;;;5048904;28;20041;-71
2022/06/30 10:01:09;;;;;;;0.17;0.13;;;26.00;99.90;;;;;;5049290;28;20044;-71
2022/06/30 10:03:44;;;;;;;0.93;0.90;;;26.30;99.90;;;;;;5065910;28;20067;-71
2022/06/30 10:06:13;;;;;;;0.20;0.20;;;26.40;99.90;;;;;;5068996;28;20040;-71
2022/06/30 10:08:39;;;;;;;1.45;0.80;;;26.40;99.90;;;;;;5067482;28;20048;-71
2022/06/30 10:11:06;;;;;;;2.20;1.02;;;26.30;99.90;;;;;;5071365;28;20061;-71
2022/06/30 10:13:39;;;;;;;3.53;0.70;;;26.40;99.90;;;;;;5065377;28;20492;-70
2022/06/30 10:16:07;;;;;;;0.28;0.25;;;26.50;99.90;;;;;;5090753;28;20056;-70
2022/06/30 10:18:41;;;;;;;0.30;0.30;;;26.40;99.90;;;;;;5092335;28;20036;-70
2022/06/30 10:21:10;;;;;;;24.55;0.90;;;26.60;99.90;;;;;;5092508;28;20096;-71
2022/06/30 10:23:37;;;;;;;0.00;0.00;;;26.60;99.90;;;;;;5093035;28;20126;-71
2022/06/30 10:26:04;;;;;;;0.30;0.30;;;26.60;99.90;;;;;;5092213;28;20044;-70
2022/06/30 10:28:30;;;;;;;0.50;0.50;;;26.70;99.90;;;;;;5071662;28;20496;-71
2022/06/30 10:31:01;;;;;;;1.95;0.63;;;26.70;99.90;;;;;;5072167;28;20044;-70
2022/06/30 10:33:44;;;;;;;0.70;0.70;;;26.70;99.90;;;;;;5054091;28;20119;-71
2022/06/30 10:36:25;;;;;;;0.47;0.17;;;26.70;99.90;;;;;;5072461;28;20044;-70
2022/06/30 10:39:00;;;;;;;0.10;0.10;;;26.80;99.90;;;;;;5072397;28;20047;-71
2022/06/30 10:41:25;;;;;;;1.13;1.02;;;26.90;99.90;;;;;;5050495;28;20412;-70
2022/06/30 10:44:03;;;;;;;0.10;0.10;;;26.60;99.90;;;;;;5065856;28;20074;-71
2022/06/30 10:46:30;;;;;;;3.95;1.77;;;26.70;99.90;;;;;;5071365;28;20098;-69
2022/06/30 10:48:56;;;;;;;0.63;0.43;;;26.70;99.90;;;;;;5054427;28;20135;-69
2022/06/30 10:51:23;;;;;;;0.20;0.20;;;26.70;99.90;;;;;;5069813;28;20135;-70
2022/06/30 10:53:58;;;;;;;1.40;1.13;;;26.60;99.90;;;;;;5071639;28;20048;-71
2022/06/30 10:56:44;;;;;;;0.20;0.20;;;26.60;99.90;;;;;;5064340;28;20809;-71
2022/06/30 10:59:12;;;;;;;0.15;0.15;;;26.70;99.90;;;;;;5091728;28;20075;-70
2022/06/30 11:01:57;;;;;;;0.22;0.22;;;26.70;99.90;;;;;;5091384;28;20198;-71
2022/06/30 11:04:23;;;;;;;0.13;0.13;;;26.80;99.90;;;;;;5050965;28;20049;-71
2022/06/30 11:07:01;;;;;;;0.00;0.00;;;26.90;99.90;;;;;;5071791;28;20047;-71
2022/06/30 11:09:44;;;;;;;0.00;0.00;;;27.00;99.90;;;;;;5071104;28;20055;-70
2022/06/30 11:12:36;;;;;;;1.60;1.30;;;27.00;99.90;;;;;;5080310;28;20040;-70
2022/06/30 11:15:03;;;;;;;15.68;1.00;;;26.90;99.90;;;;;;5069571;28;20075;-71
2022/06/30 11:17:30;;;;;;;0.00;0.00;;;26.90;99.90;;;;;;5054118;28;20036;-71
2022/06/30 11:20:05;;;;;;;0.38;0.28;;;27.00;99.90;;;;;;5070395;28;20523;-71
2022/06/30 11:22:31;;;;;;;0.45;0.40;;;27.10;99.90;;;;;;5070546;28;20560;-71
2022/06/30 11:25:09;;;;;;;0.17;0.17;;;27.20;99.90;;;;;;5071626;28;20052;-71
2022/06/30 11:27:36;;;;;;;0.68;0.68;;;27.20;99.90;;;;;;5071481;28;20051;-70
2022/06/30 11:30:10;;;;;;;0.00;0.00;;;27.30;99.90;;;;;;5068269;28;20492;-71
2022/06/30 11:32:37;;;;;;;0.45;0.45;;;27.40;99.90;;;;;;5071688;28;20102;-70
2022/06/30 11:35:03;;;;;;;0.00;0.00;;;27.30;99.90;;;;;;5053239;28;20066;-70
2022/06/30 11:37:35;;;;;;;6.70;1.45;;;27.40;99.90;;;;;;5047953;28;20079;-70
2022/06/30 11:40:05;;;;;;;0.10;0.10;;;27.30;99.90;;;;;;5049661;28;20049;-71
2022/06/30 11:42:31;;;;;;;0.10;0.10;;;27.30;99.90;;;;;;5032627;28;20057;-70
2022/06/30 11:44:56;;;;;;;0.10;0.10;;;27.40;99.90;;;;;;5051376;28;20047;-70
2022/06/30 11:47:23;;;;;;;0.00;0.00;;;27.40;99.90;;;;;;5067264;28;20127;-70
2022/06/30 11:49:51;;;;;;;0.10;0.10;;;27.40;99.90;;;;;;5070246;28;20082;-71
2022/06/30 11:52:27;;;;;;;0.15;0.13;;;27.40;99.90;;;;;;5053426;28;20155;-71
2022/06/30 11:54:54;;;;;;;0.10;0.10;;;27.50;99.90;;;;;;5069323;28;20048;-71
2022/06/30 11:57:22;;;;;;;0.00;0.00;;;27.60;99.90;;;;;;5048560;28;20495;-70
2022/06/30 11:59:53;;;;;;;0.15;0.10;;;27.70;99.90;;;;;;5033324;28;20051;-70
2022/06/30 12:02:20;;;;;;;0.25;0.17;;;27.80;99.90;;;;;;5050553;28;20102;-71
2022/06/30 12:04:51;;;;;;;0.10;0.10;;;28.00;99.90;;;;;;5055496;28;20443;-70
2022/06/30 12:07:17;;;;;;;0.35;0.17;;;28.10;99.90;;;;;;5070404;28;20484;-71
2022/06/30 12:09:44;;;;;;;0.00;0.00;;;27.90;99.90;;;;;;5069101;28;20044;-71
2022/06/30 12:12:14;;;;;;;0.90;0.65;;;27.60;99.90;;;;;;5052061;28;20492;-71
2022/06/30 12:14:40;;;;;;;2.50;0.52;;;27.70;99.90;;;;;;5045153;28;20850;-71
2022/06/30 12:17:07;;;;;;;4.45;1.38;;;27.60;99.90;;;;;;5061570;28;20146;-71
2022/06/30 12:19:33;;;;;;;0.65;0.55;;;27.80;99.90;;;;;;5069435;28;20055;-71
2022/06/30 12:22:01;;;;;;;1.55;0.73;;;27.80;99.90;;;;;;5070276;28;20094;-71
2022/06/30 12:24:27;;;;;;;0.57;0.32;;;28.00;99.90;;;;;;5067796;28;20085;-71
2022/06/30 12:26:58;;;;;;;3.33;0.60;;;28.10;99.90;;;;;;5045214;28;20059;-71
2022/06/30 12:29:26;;;;;;;0.17;0.17;;;28.10;99.90;;;;;;5059511;28;20106;-71
2022/06/30 12:32:04;;;;;;;0.10;0.10;;;28.00;99.90;;;;;;5069532;28;20119;-70
2022/06/30 12:34:31;;;;;;;0.57;0.57;;;28.10;99.90;;;;;;5070333;28;20044;-71
2022/06/30 12:36:59;;;;;;;0.20;0.17;;;27.80;99.90;;;;;;5042590;28;20041;-70
2022/06/30 12:39:25;;;;;;;0.00;0.00;;;28.20;99.90;;;;;;5048034;28;20070;-71
2022/06/30 12:42:05;;;;;;;0.10;0.10;;;28.10;99.90;;;;;;5046045;28;20489;-71
2022/06/30 12:44:35;;;;;;;0.10;0.10;;;28.30;99.90;;;;;;5050275;28;20481;-71
2022/06/30 12:47:09;;;;;;;1.55;0.95;;;28.20;99.90;;;;;;5082695;28;20431;-71
2022/06/30 12:49:35;;;;;;;0.13;0.13;;;27.90;99.90;;;;;;5072749;28;20263;-71
2022/06/30 12:52:13;;;;;;;0.10;0.10;;;28.00;99.90;;;;;;5079982;28;20079;-71
2022/06/30 12:54:56;;;;;;;0.88;0.52;;;27.90;99.90;;;;;;5069543;28;20067;-71
2022/06/30 12:57:25;;;;;;;0.65;0.60;;;27.90;99.90;;;;;;5070325;28;20044;-71